Pied Piper — WDB8661 — position and weather

sailwx.info

Track history (hours):
 
Tides and Currents Weather Stations Pressure Air Temp Water Temp Dewpoint Dewpoint Depression Visibility Wind Speed Wind Dir Waves Ship Positions

Pied Piper

Owner: Cape & Islands Transport Inc., Falmouth, MA. More information available from US FCC via Universal Licensing System and Coast Guard Vessel Documentation Center.

Last reported at 2015-May-25 22:14 UTC. Time now 2015-May-26 01:45 UTC.
Position N 41°33' W 070°36'.

Length 24 m; draft 2 m.

Type: Passenger vessel. MMSI: 366962380.

Date/timePositionNaut miles runAvg speedWind from/ knotsBaromVisibWave heightAir tempDewpointWater temp
2015-May-25 22:14N 41°33' W 070°36'912.8
2015-May-25 21:33N 41°25' W 070°29'0 0.1
2015-May-25 20:33N 41°25' W 070°29'9 7.7
2015-May-25 19:24N 41°33' W 070°36'2 1.3
2015-May-25 17:34N 41°31' W 070°35'8 7.6
2015-May-25 16:30N 41°23' W 070°31'10 9.8
2015-May-25 15:27N 41°33' W 070°36'8 8.8
2015-May-25 14:33N 41°26' W 070°30'5 3.7
2015-May-25 13:19N 41°30' W 070°34'3 0.2
2015-May-24 22:04N 41°32' W 070°36'815.3
2015-May-24 21:33N 41°26' W 070°30'7 4.7
2015-May-24 20:08N 41°31' W 070°36'1 1.7
2015-May-24 19:17N 41°33' W 070°36'0 0.0
2015-May-24 18:33N 41°33' W 070°36'1 1.0
2015-May-24 17:33N 41°32' W 070°36'9 8.2
2015-May-24 16:25N 41°23' W 070°31'10 8.0
2015-May-24 15:07N 41°33' W 070°36'813.8
2015-May-24 14:33N 41°26' W 070°30'1 1.2
2015-May-24 13:33N 41°27' W 070°31'6 0.2
2015-May-22 20:15N 41°32' W 070°37'4 1.4
2015-May-22 17:19N 41°29' W 070°33'  
Track history (hours):
 
Tides and Currents Weather Stations Pressure Air Temp Water Temp Dewpoint Dewpoint Depression Visibility Wind Speed Wind Dir Waves Ship Positions

Pied Piper

Owner: Cape & Islands Transport Inc., Falmouth, MA. More information available from US FCC via Universal Licensing System and Coast Guard Vessel Documentation Center.

Last reported at 2015-May-25 22:14 UTC. Time now 2015-May-26 01:45 UTC.
Position N 41°33' W 070°36'.

Length 24 m; draft 2 m.

Type: Passenger vessel. MMSI: 366962380.

Date/timePositionNaut miles runAvg speedWind from/ knotsBaromVisibWave heightAir tempDewpointWater temp
2015-May-25 22:14N 41°33' W 070°36'912.8
2015-May-25 21:33N 41°25' W 070°29'0 0.1
2015-May-25 20:33N 41°25' W 070°29'9 7.7
2015-May-25 19:24N 41°33' W 070°36'2 1.3
2015-May-25 17:34N 41°31' W 070°35'8 7.6
2015-May-25 16:30N 41°23' W 070°31'10 9.8
2015-May-25 15:27N 41°33' W 070°36'8 8.8
2015-May-25 14:33N 41°26' W 070°30'5 3.7
2015-May-25 13:19N 41°30' W 070°34'3 0.2
2015-May-24 22:04N 41°32' W 070°36'815.3
2015-May-24 21:33N 41°26' W 070°30'7 4.7
2015-May-24 20:08N 41°31' W 070°36'1 1.7
2015-May-24 19:17N 41°33' W 070°36'0 0.0
2015-May-24 18:33N 41°33' W 070°36'1 1.0
2015-May-24 17:33N 41°32' W 070°36'9 8.2
2015-May-24 16:25N 41°23' W 070°31'10 8.0
2015-May-24 15:07N 41°33' W 070°36'813.8
2015-May-24 14:33N 41°26' W 070°30'1 1.2
2015-May-24 13:33N 41°27' W 070°31'6 0.2
2015-May-22 20:15N 41°32' W 070°37'4 1.4
2015-May-22 17:19N 41°29' W 070°33'  

Dump ship's entire track history